Terminal Aerodrome Forecast
Issued by NWS

Home | Current Version | Previous Version | Text Only | Print | Product List | Glossary On
Versions: 1 2 3 4 5 6 7 8 9 10 11 12 13 14 15 16 17 18
000
FTUS43 KDLH 110116 CCA
TAFHYR
TAF COR
KHYR 110116Z 1101/1124 19003KT P6SM SCT028 BKN090
      TEMPO 1101/1103 BKN028
     FM110400 12002KT P6SM -SN SCT018 BKN035 OVC050
     FM110700 11003KT P6SM -SHSN SCT014 OVC028
     FM111100 11005KT 2SM -SN BR SCT008 OVC012
     FM111300 09007KT 1SM -SN BR OVC010
     FM111800 09008KT 3SM -SN BR OVC009
     FM112200 05005KT 5SM -SN BR OVC008=

USA.gov is the U.S. government's official web portal to all federal, state and local government web resources and services.